sensor_id;sensor_type;location;lat;lon;timestamp;P1;durP1;ratioP1;P2;durP2;ratioP2
13309;SDS011;6723;48.256;16.402;2023-06-10T00:02:20;5.93;;;5.17;;
13309;SDS011;6723;48.256;16.402;2023-06-10T00:04:46;6.07;;;5.33;;
13309;SDS011;6723;48.256;16.402;2023-06-10T00:07:12;5.87;;;4.97;;
13309;SDS011;6723;48.256;16.402;2023-06-10T00:09:38;6.10;;;5.50;;
13309;SDS011;6723;48.256;16.402;2023-06-10T00:12:04;5.53;;;5.03;;
13309;SDS011;6723;48.256;16.402;2023-06-10T00:14:32;6.60;;;5.47;;
13309;SDS011;6723;48.256;16.402;2023-06-10T00:19:57;6.73;;;5.03;;
13309;SDS011;6723;48.256;16.402;2023-06-10T00:22:23;6.50;;;5.30;;
13309;SDS011;6723;48.256;16.402;2023-06-10T00:24:54;7.97;;;5.33;;
13309;SDS011;6723;48.256;16.402;2023-06-10T00:27:24;6.47;;;5.40;;
13309;SDS011;6723;48.256;16.402;2023-06-10T00:29:51;6.30;;;5.70;;
13309;SDS011;6723;48.256;16.402;2023-06-10T00:32:17;6.03;;;5.03;;
13309;SDS011;6723;48.256;16.402;2023-06-10T00:34:42;7.43;;;5.30;;
13309;SDS011;6723;48.256;16.402;2023-06-10T00:37:08;6.90;;;5.80;;
13309;SDS011;6723;48.256;16.402;2023-06-10T00:39:34;6.30;;;5.43;;
13309;SDS011;6723;48.256;16.402;2023-06-10T00:42:00;5.53;;;4.90;;
13309;SDS011;6723;48.256;16.402;2023-06-10T00:44:25;5.87;;;5.27;;
13309;SDS011;6723;48.256;16.402;2023-06-10T00:46:51;7.07;;;5.60;;
13309;SDS011;6723;48.256;16.402;2023-06-10T00:49:20;7.03;;;5.50;;
13309;SDS011;6723;48.256;16.402;2023-06-10T00:51:46;7.27;;;5.60;;
13309;SDS011;6723;48.256;16.402;2023-06-10T00:54:12;7.60;;;5.77;;
13309;SDS011;6723;48.256;16.402;2023-06-10T00:56:38;6.57;;;5.13;;
13309;SDS011;6723;48.256;16.402;2023-06-10T00:59:04;6.07;;;5.30;;
13309;SDS011;6723;48.256;16.402;2023-06-10T01:01:30;6.83;;;4.83;;
13309;SDS011;6723;48.256;16.402;2023-06-10T01:03:57;7.73;;;5.40;;
13309;SDS011;6723;48.256;16.402;2023-06-10T01:12:14;6.70;;;5.87;;
13309;SDS011;6723;48.256;16.402;2023-06-10T01:14:51;6.70;;;5.77;;
13309;SDS011;6723;48.256;16.402;2023-06-10T01:17:19;6.47;;;5.87;;
13309;SDS011;6723;48.256;16.402;2023-06-10T01:19:52;8.83;;;5.87;;
13309;SDS011;6723;48.256;16.402;2023-06-10T01:22:20;10.97;;;5.83;;
13309;SDS011;6723;48.256;16.402;2023-06-10T01:24:47;6.37;;;5.77;;
13309;SDS011;6723;48.256;16.402;2023-06-10T01:27:15;7.97;;;6.50;;
13309;SDS011;6723;48.256;16.402;2023-06-10T01:29:45;6.83;;;6.10;;
13309;SDS011;6723;48.256;16.402;2023-06-10T01:32:22;6.73;;;6.13;;
13309;SDS011;6723;48.256;16.402;2023-06-10T01:34:56;9.40;;;5.97;;
13309;SDS011;6723;48.256;16.402;2023-06-10T01:37:24;7.03;;;6.17;;
13309;SDS011;6723;48.256;16.402;2023-06-10T01:39:51;7.43;;;6.43;;
13309;SDS011;6723;48.256;16.402;2023-06-10T01:42:19;10.07;;;6.57;;
13309;SDS011;6723;48.256;16.402;2023-06-10T01:44:46;7.20;;;6.30;;
13309;SDS011;6723;48.256;16.402;2023-06-10T01:47:12;9.60;;;7.10;;
13309;SDS011;6723;48.256;16.402;2023-06-10T01:49:38;11.23;;;6.20;;
13309;SDS011;6723;48.256;16.402;2023-06-10T01:52:04;7.87;;;6.73;;
13309;SDS011;6723;48.256;16.402;2023-06-10T01:54:30;7.40;;;6.70;;
13309;SDS011;6723;48.256;16.402;2023-06-10T01:56:56;10.50;;;6.97;;
13309;SDS011;6723;48.256;16.402;2023-06-10T01:59:22;9.13;;;7.20;;
13309;SDS011;6723;48.256;16.402;2023-06-10T02:01:47;8.00;;;7.20;;
13309;SDS011;6723;48.256;16.402;2023-06-10T02:04:13;7.63;;;6.83;;
13309;SDS011;6723;48.256;16.402;2023-06-10T02:06:39;8.43;;;7.53;;
13309;SDS011;6723;48.256;16.402;2023-06-10T02:09:04;13.93;;;7.67;;
13309;SDS011;6723;48.256;16.402;2023-06-10T02:11:30;10.87;;;7.83;;
13309;SDS011;6723;48.256;16.402;2023-06-10T02:13:56;9.27;;;8.00;;
13309;SDS011;6723;48.256;16.402;2023-06-10T02:16:21;10.23;;;8.10;;
13309;SDS011;6723;48.256;16.402;2023-06-10T02:18:47;12.57;;;8.23;;
13309;SDS011;6723;48.256;16.402;2023-06-10T02:21:13;9.33;;;8.33;;
13309;SDS011;6723;48.256;16.402;2023-06-10T02:23:39;10.93;;;9.10;;
13309;SDS011;6723;48.256;16.402;2023-06-10T02:26:05;10.63;;;8.63;;
13309;SDS011;6723;48.256;16.402;2023-06-10T02:28:31;12.37;;;9.40;;
13309;SDS011;6723;48.256;16.402;2023-06-10T02:30:57;9.00;;;8.10;;
13309;SDS011;6723;48.256;16.402;2023-06-10T02:33:23;11.57;;;8.87;;
13309;SDS011;6723;48.256;16.402;2023-06-10T02:35:49;10.57;;;9.53;;
13309;SDS011;6723;48.256;16.402;2023-06-10T02:38:15;10.70;;;8.63;;
13309;SDS011;6723;48.256;16.402;2023-06-10T02:40:42;11.17;;;9.70;;
13309;SDS011;6723;48.256;16.402;2023-06-10T02:43:08;14.13;;;9.53;;
13309;SDS011;6723;48.256;16.402;2023-06-10T02:45:34;10.27;;;9.17;;
13309;SDS011;6723;48.256;16.402;2023-06-10T02:48:00;10.63;;;9.53;;
13309;SDS011;6723;48.256;16.402;2023-06-10T02:50:26;10.57;;;8.90;;
13309;SDS011;6723;48.256;16.402;2023-06-10T02:52:51;12.07;;;9.90;;
13309;SDS011;6723;48.256;16.402;2023-06-10T02:55:17;12.83;;;9.70;;
13309;SDS011;6723;48.256;16.402;2023-06-10T02:57:43;12.93;;;9.53;;
13309;SDS011;6723;48.256;16.402;2023-06-10T03:00:09;12.73;;;8.93;;
13309;SDS011;6723;48.256;16.402;2023-06-10T03:02:36;10.27;;;9.17;;
13309;SDS011;6723;48.256;16.402;2023-06-10T03:05:04;12.10;;;9.13;;
13309;SDS011;6723;48.256;16.402;2023-06-10T03:07:30;10.67;;;9.07;;
13309;SDS011;6723;48.256;16.402;2023-06-10T03:09:57;12.33;;;9.77;;
13309;SDS011;6723;48.256;16.402;2023-06-10T03:12:22;10.83;;;9.30;;
13309;SDS011;6723;48.256;16.402;2023-06-10T03:14:48;10.77;;;9.67;;
13309;SDS011;6723;48.256;16.402;2023-06-10T03:17:14;11.33;;;10.10;;
13309;SDS011;6723;48.256;16.402;2023-06-10T03:19:40;11.10;;;9.07;;
13309;SDS011;6723;48.256;16.402;2023-06-10T03:22:12;11.43;;;9.77;;
13309;SDS011;6723;48.256;16.402;2023-06-10T03:24:39;10.70;;;8.90;;
13309;SDS011;6723;48.256;16.402;2023-06-10T03:27:09;10.87;;;9.77;;
13309;SDS011;6723;48.256;16.402;2023-06-10T03:29:39;11.27;;;9.43;;
13309;SDS011;6723;48.256;16.402;2023-06-10T03:32:05;11.60;;;9.77;;
13309;SDS011;6723;48.256;16.402;2023-06-10T03:34:31;11.90;;;9.80;;
13309;SDS011;6723;48.256;16.402;2023-06-10T03:36:57;11.43;;;10.23;;
13309;SDS011;6723;48.256;16.402;2023-06-10T03:39:23;14.37;;;10.50;;
13309;SDS011;6723;48.256;16.402;2023-06-10T03:41:54;12.83;;;10.43;;
13309;SDS011;6723;48.256;16.402;2023-06-10T03:44:20;13.47;;;10.90;;
13309;SDS011;6723;48.256;16.402;2023-06-10T03:46:46;11.50;;;10.07;;
13309;SDS011;6723;48.256;16.402;2023-06-10T03:49:12;11.93;;;9.90;;
13309;SDS011;6723;48.256;16.402;2023-06-10T03:51:40;12.60;;;10.57;;
13309;SDS011;6723;48.256;16.402;2023-06-10T03:54:06;11.87;;;9.97;;
13309;SDS011;6723;48.256;16.402;2023-06-10T03:56:31;11.50;;;10.17;;
13309;SDS011;6723;48.256;16.402;2023-06-10T03:58:58;13.13;;;10.63;;
13309;SDS011;6723;48.256;16.402;2023-06-10T04:01:24;12.20;;;10.13;;
13309;SDS011;6723;48.256;16.402;2023-06-10T04:03:50;12.00;;;10.80;;
13309;SDS011;6723;48.256;16.402;2023-06-10T04:06:16;11.23;;;10.03;;
13309;SDS011;6723;48.256;16.402;2023-06-10T04:08:42;12.00;;;10.43;;
13309;SDS011;6723;48.256;16.402;2023-06-10T04:11:09;12.30;;;10.13;;
13309;SDS011;6723;48.256;16.402;2023-06-10T04:13:35;13.07;;;10.63;;
13309;SDS011;6723;48.256;16.402;2023-06-10T04:16:01;12.90;;;11.20;;
13309;SDS011;6723;48.256;16.402;2023-06-10T04:18:28;12.70;;;10.27;;
13309;SDS011;6723;48.256;16.402;2023-06-10T04:20:54;12.27;;;10.50;;
13309;SDS011;6723;48.256;16.402;2023-06-10T04:23:20;13.90;;;11.50;;
13309;SDS011;6723;48.256;16.402;2023-06-10T04:25:46;14.47;;;10.33;;
13309;SDS011;6723;48.256;16.402;2023-06-10T04:28:12;11.40;;;10.10;;
13309;SDS011;6723;48.256;16.402;2023-06-10T04:30:38;12.00;;;10.50;;
13309;SDS011;6723;48.256;16.402;2023-06-10T04:33:04;12.27;;;10.80;;
13309;SDS011;6723;48.256;16.402;2023-06-10T04:35:32;14.33;;;11.33;;
13309;SDS011;6723;48.256;16.402;2023-06-10T04:37:58;12.33;;;11.00;;
13309;SDS011;6723;48.256;16.402;2023-06-10T04:40:23;12.60;;;11.30;;
13309;SDS011;6723;48.256;16.402;2023-06-10T04:42:49;13.10;;;10.60;;
13309;SDS011;6723;48.256;16.402;2023-06-10T04:45:15;14.17;;;12.03;;
13309;SDS011;6723;48.256;16.402;2023-06-10T04:47:41;13.67;;;12.27;;
13309;SDS011;6723;48.256;16.402;2023-06-10T04:50:06;14.00;;;12.47;;
13309;SDS011;6723;48.256;16.402;2023-06-10T04:52:32;13.83;;;12.43;;
13309;SDS011;6723;48.256;16.402;2023-06-10T04:54:59;14.70;;;12.47;;
13309;SDS011;6723;48.256;16.402;2023-06-10T04:57:24;14.30;;;12.80;;
13309;SDS011;6723;48.256;16.402;2023-06-10T04:59:51;14.53;;;12.70;;
13309;SDS011;6723;48.256;16.402;2023-06-10T05:02:17;14.20;;;12.00;;
13309;SDS011;6723;48.256;16.402;2023-06-10T05:04:50;14.43;;;11.57;;
13309;SDS011;6723;48.256;16.402;2023-06-10T05:07:16;14.20;;;12.37;;
13309;SDS011;6723;48.256;16.402;2023-06-10T05:09:42;15.77;;;13.13;;
13309;SDS011;6723;48.256;16.402;2023-06-10T05:12:07;13.83;;;12.33;;
13309;SDS011;6723;48.256;16.402;2023-06-10T05:14:34;16.73;;;12.90;;
13309;SDS011;6723;48.256;16.402;2023-06-10T05:17:00;16.70;;;13.83;;
13309;SDS011;6723;48.256;16.402;2023-06-10T05:19:25;15.73;;;13.30;;
13309;SDS011;6723;48.256;16.402;2023-06-10T05:21:52;16.17;;;13.37;;
13309;SDS011;6723;48.256;16.402;2023-06-10T05:24:18;14.17;;;12.57;;
13309;SDS011;6723;48.256;16.402;2023-06-10T05:26:43;17.93;;;13.77;;
13309;SDS011;6723;48.256;16.402;2023-06-10T05:29:13;16.87;;;13.10;;
13309;SDS011;6723;48.256;16.402;2023-06-10T05:31:40;17.03;;;13.87;;
13309;SDS011;6723;48.256;16.402;2023-06-10T05:34:14;16.20;;;13.70;;
13309;SDS011;6723;48.256;16.402;2023-06-10T05:36:40;15.73;;;13.53;;
13309;SDS011;6723;48.256;16.402;2023-06-10T05:39:06;16.17;;;14.47;;
13309;SDS011;6723;48.256;16.402;2023-06-10T05:41:32;17.53;;;14.17;;
13309;SDS011;6723;48.256;16.402;2023-06-10T05:43:57;17.60;;;14.37;;
13309;SDS011;6723;48.256;16.402;2023-06-10T05:46:23;19.47;;;15.30;;
13309;SDS011;6723;48.256;16.402;2023-06-10T05:48:49;19.03;;;16.53;;
13309;SDS011;6723;48.256;16.402;2023-06-10T05:51:15;23.93;;;17.63;;
13309;SDS011;6723;48.256;16.402;2023-06-10T05:53:40;28.00;;;19.77;;
13309;SDS011;6723;48.256;16.402;2023-06-10T05:56:06;22.63;;;17.73;;
13309;SDS011;6723;48.256;16.402;2023-06-10T05:58:44;20.27;;;16.37;;
13309;SDS011;6723;48.256;16.402;2023-06-10T06:01:10;19.37;;;16.03;;
13309;SDS011;6723;48.256;16.402;2023-06-10T06:03:36;20.67;;;16.50;;
13309;SDS011;6723;48.256;16.402;2023-06-10T06:06:02;19.70;;;15.97;;
13309;SDS011;6723;48.256;16.402;2023-06-10T06:08:29;17.80;;;15.20;;
13309;SDS011;6723;48.256;16.402;2023-06-10T06:10:55;22.10;;;16.13;;
13309;SDS011;6723;48.256;16.402;2023-06-10T06:13:20;18.13;;;15.37;;
13309;SDS011;6723;48.256;16.402;2023-06-10T06:15:46;20.13;;;16.03;;
13309;SDS011;6723;48.256;16.402;2023-06-10T06:18:12;18.50;;;15.30;;
13309;SDS011;6723;48.256;16.402;2023-06-10T06:20:38;17.73;;;14.87;;
13309;SDS011;6723;48.256;16.402;2023-06-10T06:23:03;19.17;;;14.27;;
13309;SDS011;6723;48.256;16.402;2023-06-10T06:28:00;16.13;;;13.83;;
13309;SDS011;6723;48.256;16.402;2023-06-10T06:30:27;16.23;;;14.50;;
13309;SDS011;6723;48.256;16.402;2023-06-10T06:32:52;15.73;;;13.27;;
13309;SDS011;6723;48.256;16.402;2023-06-10T06:35:18;19.53;;;14.43;;
13309;SDS011;6723;48.256;16.402;2023-06-10T06:37:44;19.87;;;14.90;;
13309;SDS011;6723;48.256;16.402;2023-06-10T06:40:10;18.73;;;14.57;;
13309;SDS011;6723;48.256;16.402;2023-06-10T06:42:36;17.37;;;15.27;;
13309;SDS011;6723;48.256;16.402;2023-06-10T06:45:02;20.30;;;16.20;;
13309;SDS011;6723;48.256;16.402;2023-06-10T06:47:28;18.90;;;15.50;;
13309;SDS011;6723;48.256;16.402;2023-06-10T06:49:54;18.93;;;16.87;;
13309;SDS011;6723;48.256;16.402;2023-06-10T06:52:20;21.53;;;16.43;;
13309;SDS011;6723;48.256;16.402;2023-06-10T06:54:47;20.17;;;16.90;;
13309;SDS011;6723;48.256;16.402;2023-06-10T06:57:13;19.20;;;16.57;;
13309;SDS011;6723;48.256;16.402;2023-06-10T06:59:50;19.97;;;16.67;;
13309;SDS011;6723;48.256;16.402;2023-06-10T07:02:16;21.03;;;17.60;;
13309;SDS011;6723;48.256;16.402;2023-06-10T07:04:43;20.20;;;17.30;;
13309;SDS011;6723;48.256;16.402;2023-06-10T07:07:11;18.83;;;16.83;;
13309;SDS011;6723;48.256;16.402;2023-06-10T07:09:37;19.43;;;17.37;;
13309;SDS011;6723;48.256;16.402;2023-06-10T07:12:03;21.33;;;18.33;;
13309;SDS011;6723;48.256;16.402;2023-06-10T07:14:30;20.40;;;17.57;;
13309;SDS011;6723;48.256;16.402;2023-06-10T07:16:56;19.30;;;17.20;;
13309;SDS011;6723;48.256;16.402;2023-06-10T07:19:22;19.80;;;17.20;;
13309;SDS011;6723;48.256;16.402;2023-06-10T07:21:48;23.80;;;17.90;;
13309;SDS011;6723;48.256;16.402;2023-06-10T07:24:13;19.97;;;17.97;;
13309;SDS011;6723;48.256;16.402;2023-06-10T07:26:39;24.53;;;18.67;;
13309;SDS011;6723;48.256;16.402;2023-06-10T07:29:05;22.63;;;19.57;;
13309;SDS011;6723;48.256;16.402;2023-06-10T07:31:31;20.67;;;18.43;;
13309;SDS011;6723;48.256;16.402;2023-06-10T07:33:56;21.37;;;17.40;;
13309;SDS011;6723;48.256;16.402;2023-06-10T07:36:22;20.13;;;17.33;;
13309;SDS011;6723;48.256;16.402;2023-06-10T07:38:48;20.37;;;17.60;;
13309;SDS011;6723;48.256;16.402;2023-06-10T07:41:14;18.73;;;16.63;;
13309;SDS011;6723;48.256;16.402;2023-06-10T07:43:42;21.10;;;18.07;;
13309;SDS011;6723;48.256;16.402;2023-06-10T07:46:08;20.67;;;17.80;;
13309;SDS011;6723;48.256;16.402;2023-06-10T07:48:34;22.27;;;17.73;;
13309;SDS011;6723;48.256;16.402;2023-06-10T07:51:00;19.70;;;17.37;;
13309;SDS011;6723;48.256;16.402;2023-06-10T07:53:26;21.47;;;17.80;;
13309;SDS011;6723;48.256;16.402;2023-06-10T07:55:51;19.13;;;17.03;;
13309;SDS011;6723;48.256;16.402;2023-06-10T07:58:17;20.30;;;17.73;;
13309;SDS011;6723;48.256;16.402;2023-06-10T08:00:43;22.27;;;17.70;;
13309;SDS011;6723;48.256;16.402;2023-06-10T08:05:55;19.70;;;17.10;;
13309;SDS011;6723;48.256;16.402;2023-06-10T08:08:20;21.40;;;17.67;;
13309;SDS011;6723;48.256;16.402;2023-06-10T08:10:46;18.90;;;17.00;;
13309;SDS011;6723;48.256;16.402;2023-06-10T08:13:13;20.80;;;18.00;;
13309;SDS011;6723;48.256;16.402;2023-06-10T08:15:38;20.77;;;17.93;;
13309;SDS011;6723;48.256;16.402;2023-06-10T08:18:04;24.87;;;18.40;;
13309;SDS011;6723;48.256;16.402;2023-06-10T08:20:30;23.13;;;18.50;;
13309;SDS011;6723;48.256;16.402;2023-06-10T08:22:56;23.60;;;18.27;;
13309;SDS011;6723;48.256;16.402;2023-06-10T08:25:21;20.23;;;17.50;;
13309;SDS011;6723;48.256;16.402;2023-06-10T08:27:47;18.93;;;16.80;;
13309;SDS011;6723;48.256;16.402;2023-06-10T08:30:13;19.53;;;16.87;;
13309;SDS011;6723;48.256;16.402;2023-06-10T08:32:39;21.67;;;18.00;;
13309;SDS011;6723;48.256;16.402;2023-06-10T08:35:05;19.57;;;17.00;;
13309;SDS011;6723;48.256;16.402;2023-06-10T08:37:32;19.97;;;17.80;;
13309;SDS011;6723;48.256;16.402;2023-06-10T08:39:58;20.70;;;17.23;;
13309;SDS011;6723;48.256;16.402;2023-06-10T08:42:28;19.57;;;16.73;;
13309;SDS011;6723;48.256;16.402;2023-06-10T08:44:59;17.50;;;15.80;;
13309;SDS011;6723;48.256;16.402;2023-06-10T08:47:28;19.07;;;17.07;;
13309;SDS011;6723;48.256;16.402;2023-06-10T08:50:02;16.67;;;14.97;;
13309;SDS011;6723;48.256;16.402;2023-06-10T08:55:41;17.73;;;15.87;;
13309;SDS011;6723;48.256;16.402;2023-06-10T08:58:10;17.50;;;15.53;;
13309;SDS011;6723;48.256;16.402;2023-06-10T09:00:38;18.00;;;15.60;;
13309;SDS011;6723;48.256;16.402;2023-06-10T09:03:08;23.20;;;16.83;;
13309;SDS011;6723;48.256;16.402;2023-06-10T09:08:15;19.23;;;15.40;;
13309;SDS011;6723;48.256;16.402;2023-06-10T09:10:45;17.33;;;15.60;;
13309;SDS011;6723;48.256;16.402;2023-06-10T09:13:13;19.80;;;16.30;;
13309;SDS011;6723;48.256;16.402;2023-06-10T09:15:41;18.57;;;15.70;;
13309;SDS011;6723;48.256;16.402;2023-06-10T09:18:07;16.93;;;14.70;;
13309;SDS011;6723;48.256;16.402;2023-06-10T09:20:33;16.50;;;14.80;;
13309;SDS011;6723;48.256;16.402;2023-06-10T09:22:59;15.93;;;14.33;;
13309;SDS011;6723;48.256;16.402;2023-06-10T09:25:36;16.13;;;14.47;;
13309;SDS011;6723;48.256;16.402;2023-06-10T09:28:03;17.07;;;15.40;;
13309;SDS011;6723;48.256;16.402;2023-06-10T09:30:30;15.83;;;14.23;;
13309;SDS011;6723;48.256;16.402;2023-06-10T09:32:58;15.10;;;13.70;;
13309;SDS011;6723;48.256;16.402;2023-06-10T09:35:35;15.43;;;13.97;;
13309;SDS011;6723;48.256;16.402;2023-06-10T09:38:01;16.70;;;14.97;;
13309;SDS011;6723;48.256;16.402;2023-06-10T09:43:49;16.67;;;14.03;;
13309;SDS011;6723;48.256;16.402;2023-06-10T09:46:15;18.00;;;13.47;;
13309;SDS011;6723;48.256;16.402;2023-06-10T09:48:45;14.73;;;13.10;;
13309;SDS011;6723;48.256;16.402;2023-06-10T09:51:13;14.93;;;13.47;;
13309;SDS011;6723;48.256;16.402;2023-06-10T09:53:41;14.67;;;13.23;;
13309;SDS011;6723;48.256;16.402;2023-06-10T09:56:07;14.07;;;12.77;;
13309;SDS011;6723;48.256;16.402;2023-06-10T09:58:39;14.43;;;13.00;;
13309;SDS011;6723;48.256;16.402;2023-06-10T10:01:08;17.20;;;13.60;;
13309;SDS011;6723;48.256;16.402;2023-06-10T10:03:42;17.00;;;13.13;;
13309;SDS011;6723;48.256;16.402;2023-06-10T10:06:13;14.23;;;12.73;;
13309;SDS011;6723;48.256;16.402;2023-06-10T10:08:40;14.27;;;12.67;;
13309;SDS011;6723;48.256;16.402;2023-06-10T10:11:06;15.70;;;12.80;;
13309;SDS011;6723;48.256;16.402;2023-06-10T10:13:33;14.00;;;12.60;;
13309;SDS011;6723;48.256;16.402;2023-06-10T10:16:01;14.47;;;13.03;;
13309;SDS011;6723;48.256;16.402;2023-06-10T10:18:31;14.37;;;12.87;;
13309;SDS011;6723;48.256;16.402;2023-06-10T10:21:00;14.33;;;12.73;;
13309;SDS011;6723;48.256;16.402;2023-06-10T10:23:34;14.03;;;12.70;;
13309;SDS011;6723;48.256;16.402;2023-06-10T10:26:15;12.83;;;11.53;;
13309;SDS011;6723;48.256;16.402;2023-06-10T10:31:29;13.10;;;11.70;;
13309;SDS011;6723;48.256;16.402;2023-06-10T10:33:59;12.37;;;11.10;;
13309;SDS011;6723;48.256;16.402;2023-06-10T10:36:25;14.33;;;12.47;;
13309;SDS011;6723;48.256;16.402;2023-06-10T10:38:52;13.53;;;11.20;;
13309;SDS011;6723;48.256;16.402;2023-06-10T10:41:19;12.37;;;10.97;;
13309;SDS011;6723;48.256;16.402;2023-06-10T10:43:46;12.03;;;10.90;;
13309;SDS011;6723;48.256;16.402;2023-06-10T10:46:14;11.57;;;10.47;;
13309;SDS011;6723;48.256;16.402;2023-06-10T10:48:42;11.73;;;10.73;;
13309;SDS011;6723;48.256;16.402;2023-06-10T10:51:09;12.63;;;10.07;;
13309;SDS011;6723;48.256;16.402;2023-06-10T10:53:36;10.70;;;9.60;;
13309;SDS011;6723;48.256;16.402;2023-06-10T10:56:04;11.13;;;10.03;;
13309;SDS011;6723;48.256;16.402;2023-06-10T10:58:37;11.30;;;10.20;;
13309;SDS011;6723;48.256;16.402;2023-06-10T11:01:11;11.05;;;9.95;;
13309;SDS011;6723;48.256;16.402;2023-06-10T11:03:44;10.52;;;9.57;;
13309;SDS011;6723;48.256;16.402;2023-06-10T11:06:15;10.70;;;9.70;;
13309;SDS011;6723;48.256;16.402;2023-06-10T11:13:59;11.05;;;10.15;;
13309;SDS011;6723;48.256;16.402;2023-06-10T11:16:29;10.60;;;9.70;;
13309;SDS011;6723;48.256;16.402;2023-06-10T11:18:55;10.93;;;9.77;;
13309;SDS011;6723;48.256;16.402;2023-06-10T11:21:25;10.80;;;9.70;;
13309;SDS011;6723;48.256;16.402;2023-06-10T11:23:51;11.00;;;9.83;;
13309;SDS011;6723;48.256;16.402;2023-06-10T11:34:02;9.77;;;8.95;;
13309;SDS011;6723;48.256;16.402;2023-06-10T11:36:30;11.48;;;8.70;;
13309;SDS011;6723;48.256;16.402;2023-06-10T11:39:03;10.30;;;9.20;;
13309;SDS011;6723;48.256;16.402;2023-06-10T11:41:31;9.82;;;8.93;;
13309;SDS011;6723;48.256;16.402;2023-06-10T11:44:02;9.57;;;8.70;;
13309;SDS011;6723;48.256;16.402;2023-06-10T11:46:29;9.43;;;8.48;;
13309;SDS011;6723;48.256;16.402;2023-06-10T11:48:55;10.30;;;9.30;;
13309;SDS011;6723;48.256;16.402;2023-06-10T11:53:58;10.03;;;9.10;;
13309;SDS011;6723;48.256;16.402;2023-06-10T11:56:28;10.47;;;9.53;;
13309;SDS011;6723;48.256;16.402;2023-06-10T11:58:58;10.05;;;9.02;;
13309;SDS011;6723;48.256;16.402;2023-06-10T12:01:36;9.98;;;9.05;;
13309;SDS011;6723;48.256;16.402;2023-06-10T12:04:09;9.27;;;8.40;;
13309;SDS011;6723;48.256;16.402;2023-06-10T12:06:44;8.93;;;8.13;;
13309;SDS011;6723;48.256;16.402;2023-06-10T12:09:20;9.00;;;8.20;;
13309;SDS011;6723;48.256;16.402;2023-06-10T12:11:50;9.55;;;8.65;;
13309;SDS011;6723;48.256;16.402;2023-06-10T12:17:35;8.85;;;7.93;;
13309;SDS011;6723;48.256;16.402;2023-06-10T12:20:04;9.20;;;8.40;;
13309;SDS011;6723;48.256;16.402;2023-06-10T12:22:40;9.10;;;8.32;;
13309;SDS011;6723;48.256;16.402;2023-06-10T12:25:07;10.13;;;7.63;;
13309;SDS011;6723;48.256;16.402;2023-06-10T12:27:35;8.70;;;7.93;;
13309;SDS011;6723;48.256;16.402;2023-06-10T12:30:02;9.63;;;8.73;;
13309;SDS011;6723;48.256;16.402;2023-06-10T12:32:38;10.70;;;9.60;;
13309;SDS011;6723;48.256;16.402;2023-06-10T12:35:05;11.53;;;10.53;;
13309;SDS011;6723;48.256;16.402;2023-06-10T12:37:32;12.87;;;11.67;;
13309;SDS011;6723;48.256;16.402;2023-06-10T12:40:02;13.90;;;12.63;;
13309;SDS011;6723;48.256;16.402;2023-06-10T12:42:31;13.77;;;12.50;;
13309;SDS011;6723;48.256;16.402;2023-06-10T12:44:59;14.27;;;12.67;;
13309;SDS011;6723;48.256;16.402;2023-06-10T12:47:44;13.27;;;11.97;;
13309;SDS011;6723;48.256;16.402;2023-06-10T12:50:11;14.20;;;12.67;;
13309;SDS011;6723;48.256;16.402;2023-06-10T12:52:37;13.83;;;12.33;;
13309;SDS011;6723;48.256;16.402;2023-06-10T12:55:02;14.63;;;12.50;;
13309;SDS011;6723;48.256;16.402;2023-06-10T13:00:16;13.80;;;12.50;;
13309;SDS011;6723;48.256;16.402;2023-06-10T13:02:43;11.90;;;10.70;;
13309;SDS011;6723;48.256;16.402;2023-06-10T13:05:09;13.17;;;11.67;;
13309;SDS011;6723;48.256;16.402;2023-06-10T13:07:34;12.87;;;10.60;;
13309;SDS011;6723;48.256;16.402;2023-06-10T13:10:00;10.77;;;9.73;;
13309;SDS011;6723;48.256;16.402;2023-06-10T13:12:26;10.00;;;9.10;;
13309;SDS011;6723;48.256;16.402;2023-06-10T13:14:55;9.87;;;8.93;;
13309;SDS011;6723;48.256;16.402;2023-06-10T13:17:21;11.93;;;10.73;;
13309;SDS011;6723;48.256;16.402;2023-06-10T13:19:47;11.00;;;9.90;;
13309;SDS011;6723;48.256;16.402;2023-06-10T13:22:15;10.73;;;9.63;;
13309;SDS011;6723;48.256;16.402;2023-06-10T13:24:41;11.67;;;10.50;;
13309;SDS011;6723;48.256;16.402;2023-06-10T13:27:08;11.93;;;10.83;;
13309;SDS011;6723;48.256;16.402;2023-06-10T13:29:35;12.33;;;11.10;;
13309;SDS011;6723;48.256;16.402;2023-06-10T13:32:02;11.37;;;10.23;;
13309;SDS011;6723;48.256;16.402;2023-06-10T13:34:28;11.63;;;10.27;;
13309;SDS011;6723;48.256;16.402;2023-06-10T13:36:54;11.40;;;10.37;;
13309;SDS011;6723;48.256;16.402;2023-06-10T13:39:20;11.10;;;10.10;;
13309;SDS011;6723;48.256;16.402;2023-06-10T13:41:45;11.83;;;10.63;;
13309;SDS011;6723;48.256;16.402;2023-06-10T13:44:11;11.90;;;10.70;;
13309;SDS011;6723;48.256;16.402;2023-06-10T13:46:37;11.93;;;10.83;;
13309;SDS011;6723;48.256;16.402;2023-06-10T13:49:03;12.10;;;10.93;;
13309;SDS011;6723;48.256;16.402;2023-06-10T13:51:29;12.13;;;10.80;;
13309;SDS011;6723;48.256;16.402;2023-06-10T13:53:55;11.60;;;10.43;;
13309;SDS011;6723;48.256;16.402;2023-06-10T13:56:21;11.73;;;10.63;;
13309;SDS011;6723;48.256;16.402;2023-06-10T13:58:46;13.23;;;11.83;;
13309;SDS011;6723;48.256;16.402;2023-06-10T14:01:12;12.73;;;11.33;;
13309;SDS011;6723;48.256;16.402;2023-06-10T14:03:38;11.23;;;10.23;;
13309;SDS011;6723;48.256;16.402;2023-06-10T14:06:04;12.43;;;11.13;;
13309;SDS011;6723;48.256;16.402;2023-06-10T14:08:30;11.90;;;10.60;;
13309;SDS011;6723;48.256;16.402;2023-06-10T14:10:55;12.43;;;11.20;;
13309;SDS011;6723;48.256;16.402;2023-06-10T14:13:21;10.83;;;9.83;;
13309;SDS011;6723;48.256;16.402;2023-06-10T14:15:47;13.50;;;10.70;;
13309;SDS011;6723;48.256;16.402;2023-06-10T14:18:13;10.90;;;9.90;;
13309;SDS011;6723;48.256;16.402;2023-06-10T14:20:38;11.63;;;10.47;;
13309;SDS011;6723;48.256;16.402;2023-06-10T14:23:04;12.27;;;9.80;;
13309;SDS011;6723;48.256;16.402;2023-06-10T14:25:30;11.87;;;10.67;;
13309;SDS011;6723;48.256;16.402;2023-06-10T14:27:56;11.87;;;10.73;;
13309;SDS011;6723;48.256;16.402;2023-06-10T14:30:22;11.17;;;10.17;;
13309;SDS011;6723;48.256;16.402;2023-06-10T14:32:48;11.03;;;10.00;;
13309;SDS011;6723;48.256;16.402;2023-06-10T14:38:26;11.57;;;10.57;;
13309;SDS011;6723;48.256;16.402;2023-06-10T14:40:52;11.83;;;10.73;;
13309;SDS011;6723;48.256;16.402;2023-06-10T14:43:18;14.33;;;10.77;;
13309;SDS011;6723;48.256;16.402;2023-06-10T14:45:44;14.97;;;10.73;;
13309;SDS011;6723;48.256;16.402;2023-06-10T14:48:12;16.30;;;10.77;;
13309;SDS011;6723;48.256;16.402;2023-06-10T14:50:38;11.93;;;10.73;;
13309;SDS011;6723;48.256;16.402;2023-06-10T14:53:06;13.87;;;10.13;;
13309;SDS011;6723;48.256;16.402;2023-06-10T14:55:31;13.47;;;10.90;;
13309;SDS011;6723;48.256;16.402;2023-06-10T14:57:57;11.77;;;10.20;;
13309;SDS011;6723;48.256;16.402;2023-06-10T15:00:23;11.37;;;9.97;;
13309;SDS011;6723;48.256;16.402;2023-06-10T15:02:50;12.43;;;10.57;;
13309;SDS011;6723;48.256;16.402;2023-06-10T15:05:17;15.07;;;10.57;;
13309;SDS011;6723;48.256;16.402;2023-06-10T15:07:46;12.13;;;10.17;;
13309;SDS011;6723;48.256;16.402;2023-06-10T15:10:13;14.70;;;10.43;;
13309;SDS011;6723;48.256;16.402;2023-06-10T15:12:39;12.20;;;10.87;;
13309;SDS011;6723;48.256;16.402;2023-06-10T15:15:04;12.70;;;11.40;;
13309;SDS011;6723;48.256;16.402;2023-06-10T15:17:31;15.67;;;12.07;;
13309;SDS011;6723;48.256;16.402;2023-06-10T15:19:57;21.53;;;14.97;;